createdAt,value
2022-10-13T00:00:52.094Z,0.00
2022-10-13T00:01:51.988Z,0.00
2022-10-13T00:02:51.976Z,0.00
2022-10-13T00:03:52.006Z,0.00
2022-10-13T00:04:51.960Z,0.00
2022-10-13T00:05:51.945Z,0.00
2022-10-13T00:06:51.936Z,0.00
2022-10-13T00:07:51.927Z,0.00
2022-10-13T00:08:51.903Z,0.00
2022-10-13T00:09:51.887Z,0.00
2022-10-13T00:10:51.897Z,0.00
2022-10-13T00:11:51.858Z,0.00
2022-10-13T00:12:51.857Z,0.00
2022-10-13T00:13:51.842Z,0.00
2022-10-13T00:14:51.845Z,0.00
2022-10-13T00:15:51.837Z,0.00
2022-10-13T00:16:51.812Z,0.00
2022-10-13T00:17:51.809Z,0.00
2022-10-13T00:18:51.777Z,0.00
2022-10-13T00:19:51.768Z,0.00
2022-10-13T00:20:51.778Z,0.00
2022-10-13T00:21:51.767Z,0.00
2022-10-13T00:22:51.737Z,0.00
2022-10-13T00:23:51.742Z,0.00
2022-10-13T00:24:51.711Z,0.00
2022-10-13T00:25:51.719Z,0.00
2022-10-13T00:26:51.687Z,0.00
2022-10-13T00:27:51.689Z,0.00
2022-10-13T00:28:53.111Z,0.00
2022-10-13T00:29:51.667Z,0.00
2022-10-13T00:30:51.680Z,0.00
2022-10-13T00:31:51.653Z,0.00
2022-10-13T00:32:51.646Z,0.00
2022-10-13T00:33:51.598Z,0.00
2022-10-13T00:34:51.621Z,0.00
2022-10-13T00:35:51.599Z,0.00
2022-10-13T00:36:51.576Z,0.00
2022-10-13T00:37:51.605Z,0.00
2022-10-13T00:38:51.568Z,0.00
2022-10-13T00:39:51.530Z,0.00
2022-10-13T00:40:51.577Z,0.00
2022-10-13T00:41:51.512Z,0.00
2022-10-13T00:42:51.501Z,0.00
2022-10-13T00:43:51.491Z,0.00
2022-10-13T00:44:51.501Z,0.00
2022-10-13T00:45:51.490Z,0.00
2022-10-13T00:46:51.453Z,0.00
2022-10-13T00:47:51.450Z,0.00
2022-10-13T00:48:51.440Z,0.00
2022-10-13T00:49:51.427Z,0.00
2022-10-13T00:50:51.431Z,0.00
2022-10-13T00:51:51.413Z,0.00
2022-10-13T00:52:51.463Z,0.00
2022-10-13T00:53:51.376Z,0.00
2022-10-13T00:54:51.653Z,0.00
2022-10-13T00:55:51.380Z,0.00
2022-10-13T00:56:51.341Z,0.00
2022-10-13T00:57:51.322Z,0.00
2022-10-13T00:58:51.326Z,0.00
2022-10-13T00:59:51.295Z,0.00
2022-10-13T01:00:51.359Z,0.00
2022-10-13T01:01:51.324Z,0.00
2022-10-13T01:02:51.282Z,0.00
2022-10-13T01:03:51.272Z,0.00
2022-10-13T01:04:51.239Z,0.00
2022-10-13T01:05:51.264Z,0.00
2022-10-13T01:06:51.223Z,0.00
2022-10-13T01:07:51.213Z,0.00
2022-10-13T01:08:51.215Z,0.00
2022-10-13T01:09:51.195Z,0.00
2022-10-13T01:10:51.182Z,0.00
2022-10-13T01:11:51.168Z,0.00
2022-10-13T01:12:51.154Z,0.00
2022-10-13T01:13:51.136Z,0.00
2022-10-13T01:14:51.124Z,0.00
2022-10-13T01:15:51.127Z,0.00
2022-10-13T01:16:51.117Z,0.00
2022-10-13T01:17:51.095Z,0.00
2022-10-13T01:18:51.095Z,0.00
2022-10-13T01:19:51.090Z,0.00
2022-10-13T01:20:51.078Z,0.00
2022-10-13T01:21:51.044Z,0.00
2022-10-13T01:22:51.051Z,0.00
2022-10-13T01:23:51.026Z,0.00
2022-10-13T01:24:51.031Z,0.00
2022-10-13T01:25:51.009Z,0.00
2022-10-13T01:26:50.995Z,0.00
2022-10-13T01:27:50.975Z,0.00
2022-10-13T01:28:51.021Z,0.00
2022-10-13T01:29:50.959Z,0.00
2022-10-13T01:30:51.118Z,0.00
2022-10-13T01:31:50.923Z,0.00
2022-10-13T01:32:50.926Z,0.00
2022-10-13T01:33:50.906Z,0.00
2022-10-13T01:34:50.887Z,0.00
2022-10-13T01:35:50.888Z,0.00
2022-10-13T01:36:50.886Z,0.00
2022-10-13T01:37:50.847Z,0.00
2022-10-13T01:38:50.865Z,0.00
2022-10-13T01:39:50.838Z,0.00
2022-10-13T01:40:50.872Z,0.00
2022-10-13T01:41:50.801Z,0.00
2022-10-13T01:42:50.831Z,0.00
2022-10-13T01:43:50.780Z,0.00
2022-10-13T01:44:50.777Z,0.00
2022-10-13T01:45:50.780Z,0.00
2022-10-13T01:46:50.772Z,0.00
2022-10-13T01:47:51.019Z,0.00
2022-10-13T01:48:50.727Z,0.00
2022-10-13T01:49:50.727Z,0.00
2022-10-13T01:50:50.778Z,0.00
2022-10-13T01:51:50.691Z,0.00
2022-10-13T01:52:50.670Z,0.00
2022-10-13T01:53:50.688Z,0.00
2022-10-13T01:54:50.659Z,0.00
2022-10-13T01:55:50.652Z,0.00
2022-10-13T01:56:50.648Z,0.00
2022-10-13T01:57:50.633Z,0.00
2022-10-13T01:58:50.599Z,0.00
2022-10-13T01:59:50.589Z,0.00
2022-10-13T02:00:50.617Z,0.00
2022-10-13T02:01:50.584Z,0.00
2022-10-13T02:02:50.550Z,0.00
2022-10-13T02:03:50.581Z,0.00
2022-10-13T02:04:50.587Z,0.00
2022-10-13T02:05:50.539Z,0.00
2022-10-13T02:06:50.521Z,0.00
2022-10-13T02:07:50.522Z,0.00
2022-10-13T02:08:50.495Z,0.00
2022-10-13T02:09:50.495Z,0.00
2022-10-13T02:10:50.509Z,0.00
2022-10-13T02:11:50.470Z,0.00
2022-10-13T02:12:50.458Z,0.00
2022-10-13T02:13:50.441Z,0.00
2022-10-13T02:14:50.437Z,0.00
2022-10-13T02:15:50.432Z,0.00
2022-10-13T02:16:50.391Z,0.00
2022-10-13T02:17:50.415Z,0.00
2022-10-13T02:18:50.370Z,0.00
2022-10-13T02:19:50.359Z,0.00
2022-10-13T02:20:50.633Z,0.00
2022-10-13T02:21:50.352Z,0.00
2022-10-13T02:22:50.324Z,0.00
2022-10-13T02:23:50.311Z,0.00
2022-10-13T02:24:50.313Z,0.00
2022-10-13T02:25:50.297Z,0.00
2022-10-13T02:26:50.280Z,0.00
2022-10-13T02:27:50.298Z,0.00
2022-10-13T02:28:50.316Z,0.00
2022-10-13T02:29:50.252Z,0.00
2022-10-13T02:30:50.253Z,0.00
2022-10-13T02:31:50.234Z,0.00
2022-10-13T02:32:50.213Z,0.00
2022-10-13T02:33:50.192Z,0.00
2022-10-13T02:34:50.212Z,0.00
2022-10-13T02:35:50.213Z,0.00
2022-10-13T02:36:50.164Z,0.00
2022-10-13T02:37:50.156Z,0.00
2022-10-13T02:38:50.148Z,0.00
2022-10-13T02:39:50.131Z,0.00
2022-10-13T02:40:50.126Z,0.00
2022-10-13T02:41:50.114Z,0.00
2022-10-13T02:42:50.094Z,0.00
2022-10-13T02:43:50.072Z,0.00
2022-10-13T02:44:50.087Z,0.00
2022-10-13T02:45:50.143Z,0.00
2022-10-13T02:46:50.050Z,0.00
2022-10-13T02:47:50.027Z,0.00
2022-10-13T02:48:50.029Z,0.00
2022-10-13T02:49:50.005Z,0.00
2022-10-13T02:50:50.006Z,0.00
2022-10-13T02:51:49.987Z,0.00
2022-10-13T02:52:49.978Z,0.00
2022-10-13T02:53:49.968Z,0.00
2022-10-13T02:54:49.962Z,0.00
2022-10-13T02:55:49.953Z,0.00
2022-10-13T02:56:49.959Z,0.00
2022-10-13T02:57:49.916Z,0.00
2022-10-13T02:58:49.917Z,0.00
2022-10-13T02:59:49.886Z,0.00
2022-10-13T03:00:49.907Z,0.00
2022-10-13T03:01:49.876Z,0.00
2022-10-13T03:02:49.849Z,0.00
2022-10-13T03:03:49.845Z,0.00
2022-10-13T03:04:49.856Z,0.00
2022-10-13T03:05:49.848Z,0.00
2022-10-13T03:06:49.807Z,0.00
2022-10-13T03:07:49.802Z,0.00
2022-10-13T03:08:49.795Z,0.00
2022-10-13T03:09:49.783Z,0.00
2022-10-13T03:10:49.757Z,0.00
2022-10-13T03:11:49.882Z,0.00
2022-10-13T03:12:49.728Z,0.00
2022-10-13T03:13:49.726Z,0.00
2022-10-13T03:14:49.717Z,0.00
2022-10-13T03:15:49.720Z,0.00
2022-10-13T03:16:50.000Z,0.00
2022-10-13T03:17:49.679Z,0.00
2022-10-13T03:18:49.681Z,0.00
2022-10-13T03:19:49.670Z,0.00
2022-10-13T03:20:49.679Z,0.00
2022-10-13T03:21:49.629Z,0.00
2022-10-13T03:22:50.143Z,0.00
2022-10-13T03:23:49.630Z,0.00
2022-10-13T03:24:49.603Z,0.00
2022-10-13T03:25:49.599Z,0.00
2022-10-13T03:26:49.581Z,0.00
2022-10-13T03:27:49.552Z,0.00
2022-10-13T03:28:49.592Z,0.00
2022-10-13T03:29:49.599Z,0.00
2022-10-13T03:30:49.530Z,0.00
2022-10-13T03:31:49.510Z,0.00
2022-10-13T03:32:49.520Z,0.00
2022-10-13T03:33:49.500Z,0.00
2022-10-13T03:34:49.496Z,0.00
2022-10-13T03:35:49.481Z,0.00
2022-10-13T03:36:49.502Z,0.00
2022-10-13T03:37:49.443Z,0.00
2022-10-13T03:38:49.431Z,0.00
2022-10-13T03:39:49.482Z,0.00
2022-10-13T03:40:49.432Z,0.00
2022-10-13T03:41:49.391Z,0.00
2022-10-13T03:42:49.402Z,0.00
2022-10-13T03:43:49.382Z,0.00
2022-10-13T03:44:53.653Z,0.00
2022-10-13T03:45:50.374Z,0.00
2022-10-13T03:46:49.343Z,0.00
2022-10-13T03:47:49.335Z,0.00
2022-10-13T03:48:49.311Z,0.00
2022-10-13T03:49:49.334Z,0.00
2022-10-13T03:50:49.293Z,0.00
2022-10-13T03:51:49.291Z,0.00
2022-10-13T03:52:49.253Z,0.00
2022-10-13T03:53:49.303Z,0.00
2022-10-13T03:54:49.264Z,0.00
2022-10-13T03:55:49.244Z,0.00
2022-10-13T03:56:49.242Z,0.00
2022-10-13T03:57:49.222Z,0.00
2022-10-13T03:58:49.208Z,0.00
2022-10-13T03:59:49.202Z,0.00
2022-10-13T04:00:49.234Z,0.00
2022-10-13T04:01:49.204Z,0.00
2022-10-13T04:02:49.144Z,0.00
2022-10-13T04:03:49.144Z,0.00
2022-10-13T04:04:49.133Z,0.00
2022-10-13T04:05:49.144Z,0.00
2022-10-13T04:06:49.138Z,0.00
2022-10-13T04:07:49.101Z,0.00
2022-10-13T04:08:49.117Z,0.00
2022-10-13T04:09:49.076Z,0.00
2022-10-13T04:10:49.066Z,0.00
2022-10-13T04:11:49.075Z,0.00
2022-10-13T04:12:49.051Z,0.00
2022-10-13T04:13:49.040Z,0.00
2022-10-13T04:14:49.061Z,0.00
2022-10-13T04:15:49.016Z,0.00
2022-10-13T04:16:48.990Z,0.00
2022-10-13T04:17:48.986Z,0.00
2022-10-13T04:18:48.966Z,0.00
2022-10-13T04:19:48.946Z,0.00
2022-10-13T04:20:49.266Z,0.00
2022-10-13T04:21:48.971Z,0.00
2022-10-13T04:22:48.940Z,0.00
2022-10-13T04:23:48.896Z,0.00
2022-10-13T04:24:48.905Z,0.00
2022-10-13T04:25:48.891Z,0.00
2022-10-13T04:26:48.870Z,0.00
2022-10-13T04:27:48.898Z,0.00
2022-10-13T04:28:48.945Z,0.00
2022-10-13T04:29:48.847Z,0.00
2022-10-13T04:30:49.686Z,0.00
2022-10-13T04:31:48.817Z,0.00
2022-10-13T04:32:48.808Z,0.00
2022-10-13T04:33:48.787Z,0.00
2022-10-13T04:34:48.804Z,0.00
2022-10-13T04:35:48.792Z,0.00
2022-10-13T04:36:48.746Z,0.00
2022-10-13T04:37:48.757Z,0.00
2022-10-13T04:38:48.771Z,0.00
2022-10-13T04:39:48.980Z,0.00
2022-10-13T04:40:48.874Z,0.00
2022-10-13T04:41:48.718Z,0.00
2022-10-13T04:42:48.678Z,0.00
2022-10-13T04:43:48.672Z,0.00
2022-10-13T04:44:48.659Z,0.00
2022-10-13T04:45:48.671Z,0.00
2022-10-13T04:46:48.628Z,0.00
2022-10-13T04:47:48.611Z,0.00
2022-10-13T04:48:48.651Z,0.00
2022-10-13T04:49:48.589Z,0.00
2022-10-13T04:50:48.599Z,0.00
2022-10-13T04:51:48.629Z,0.00
2022-10-13T04:52:48.582Z,0.00
2022-10-13T04:53:48.562Z,0.00
2022-10-13T04:54:48.633Z,0.00
2022-10-13T04:55:48.533Z,0.00
2022-10-13T04:56:48.520Z,0.00
2022-10-13T04:57:48.527Z,0.00
2022-10-13T04:58:48.509Z,0.00
2022-10-13T04:59:48.493Z,0.00
2022-10-13T05:00:48.568Z,0.00
2022-10-13T05:01:48.490Z,0.00
2022-10-13T05:02:49.231Z,0.00
2022-10-13T05:03:48.460Z,0.00
2022-10-13T05:04:48.455Z,0.00
2022-10-13T05:05:48.463Z,0.00
2022-10-13T05:07:15.913Z,0.00
2022-10-13T05:07:49.390Z,0.00
2022-10-13T05:08:48.395Z,0.00
2022-10-13T05:09:48.371Z,0.00
2022-10-13T05:10:48.377Z,0.00
2022-10-13T05:11:48.354Z,0.00
2022-10-13T05:12:48.345Z,0.00
2022-10-13T05:13:48.303Z,0.00
2022-10-13T05:14:48.312Z,0.00
2022-10-13T05:15:48.317Z,0.00
2022-10-13T05:16:48.302Z,0.00
2022-10-13T05:17:48.262Z,0.00
2022-10-13T05:18:48.262Z,0.00
2022-10-13T05:19:48.258Z,0.00
2022-10-13T05:20:48.235Z,0.00
2022-10-13T05:21:48.222Z,0.00
2022-10-13T05:22:48.213Z,0.00
2022-10-13T05:23:48.194Z,0.00
2022-10-13T05:24:48.187Z,0.00
2022-10-13T05:25:48.202Z,0.00
2022-10-13T05:26:48.154Z,0.00
2022-10-13T05:27:48.153Z,0.00
2022-10-13T05:28:48.179Z,0.00
2022-10-13T05:29:48.964Z,0.00
2022-10-13T05:30:48.123Z,0.00
2022-10-13T05:31:48.096Z,0.00
2022-10-13T05:32:51.556Z,0.00
2022-10-13T05:33:49.096Z,0.00
2022-10-13T05:34:48.120Z,0.00
2022-10-13T05:35:48.084Z,0.00
2022-10-13T05:36:48.048Z,0.00
2022-10-13T05:37:48.038Z,0.00
2022-10-13T05:38:48.045Z,0.00
2022-10-13T05:39:48.929Z,0.00
2022-10-13T05:40:47.996Z,0.00
2022-10-13T05:41:47.975Z,0.00
2022-10-13T05:42:48.026Z,0.00
2022-10-13T05:43:47.976Z,0.00
2022-10-13T05:44:47.976Z,0.00
2022-10-13T05:45:47.956Z,0.00
2022-10-13T05:46:47.945Z,0.00
2022-10-13T05:47:47.916Z,0.00
2022-10-13T05:48:47.909Z,0.00
2022-10-13T05:49:47.906Z,0.00
2022-10-13T05:50:47.915Z,0.00
2022-10-13T05:51:47.868Z,0.00
2022-10-13T05:52:47.880Z,0.00
2022-10-13T05:53:51.035Z,5.62
2022-10-13T05:54:48.856Z,5.62
2022-10-13T05:55:47.901Z,5.62
2022-10-13T05:56:47.858Z,5.62
2022-10-13T05:57:47.800Z,5.62
2022-10-13T05:58:47.793Z,5.62
2022-10-13T05:59:47.816Z,5.62
2022-10-13T06:00:47.777Z,11.25
2022-10-13T06:01:47.921Z,11.25
2022-10-13T06:02:47.758Z,11.25
2022-10-13T06:03:48.758Z,16.88
2022-10-13T06:04:47.718Z,16.88
2022-10-13T06:05:47.770Z,16.88
2022-10-13T06:06:47.698Z,16.88
2022-10-13T06:07:47.670Z,16.88
2022-10-13T06:08:47.678Z,22.50
2022-10-13T06:09:47.700Z,22.50
2022-10-13T06:10:47.965Z,22.50
2022-10-13T06:11:47.638Z,22.50
2022-10-13T06:12:47.647Z,22.50
2022-10-13T06:13:47.622Z,22.50
2022-10-13T06:14:47.609Z,22.50
2022-10-13T06:15:47.609Z,28.12
2022-10-13T06:16:48.561Z,28.12
2022-10-13T06:17:47.580Z,28.12
2022-10-13T06:18:47.552Z,28.12
2022-10-13T06:19:47.560Z,33.75
2022-10-13T06:20:47.630Z,33.75
2022-10-13T06:21:47.539Z,33.75
2022-10-13T06:22:49.472Z,39.38
2022-10-13T06:23:47.513Z,39.38
2022-10-13T06:24:47.494Z,39.38
2022-10-13T06:26:08.659Z,45.00
2022-10-13T06:26:47.494Z,45.00
2022-10-13T06:27:47.472Z,50.62
2022-10-13T06:28:51.092Z,50.62
2022-10-13T06:29:47.449Z,56.25
2022-10-13T06:30:47.442Z,56.25
2022-10-13T06:31:47.399Z,56.25
2022-10-13T06:32:47.381Z,61.88
2022-10-13T06:33:47.391Z,61.88
2022-10-13T06:34:47.415Z,61.88
2022-10-13T06:35:47.395Z,67.50
2022-10-13T06:36:47.368Z,67.50
2022-10-13T06:37:47.366Z,67.50
2022-10-13T06:38:47.320Z,67.50
2022-10-13T06:39:48.383Z,67.50
2022-10-13T06:40:47.312Z,67.50
2022-10-13T06:41:47.283Z,67.50
2022-10-13T06:42:47.286Z,67.50
2022-10-13T06:43:47.308Z,67.50
2022-10-13T06:44:47.270Z,67.50
2022-10-13T06:45:47.263Z,67.50
2022-10-13T06:46:47.223Z,73.12
2022-10-13T06:47:47.244Z,73.12
2022-10-13T06:48:47.201Z,78.75
2022-10-13T06:49:47.185Z,78.75
2022-10-13T06:50:47.254Z,84.38
2022-10-13T06:51:47.174Z,90.00
2022-10-13T06:52:47.151Z,90.00
2022-10-13T06:53:47.179Z,95.62
2022-10-13T06:54:47.904Z,95.62
2022-10-13T06:55:52.249Z,95.62
2022-10-13T06:56:48.141Z,95.62
2022-10-13T06:57:47.105Z,101.25
2022-10-13T06:58:47.084Z,101.25
2022-10-13T06:59:47.067Z,106.88
2022-10-13T07:00:47.140Z,106.88
2022-10-13T07:01:47.082Z,106.88
2022-10-13T07:02:47.038Z,106.88
2022-10-13T07:03:48.056Z,106.88
2022-10-13T07:04:47.022Z,112.50
2022-10-13T07:05:47.005Z,112.50
2022-10-13T07:06:47.725Z,112.50
2022-10-13T07:07:47.007Z,112.50
2022-10-13T07:08:46.969Z,112.50
2022-10-13T07:09:46.998Z,112.50
2022-10-13T07:10:46.967Z,112.50
2022-10-13T07:11:46.934Z,112.50
2022-10-13T07:12:46.917Z,112.50
2022-10-13T07:13:47.435Z,118.12
2022-10-13T07:14:46.916Z,118.12
2022-10-13T07:15:46.886Z,118.12
2022-10-13T07:16:46.927Z,118.12
2022-10-13T07:17:46.871Z,118.12
2022-10-13T07:18:46.874Z,118.12
2022-10-13T07:19:46.873Z,118.12
2022-10-13T07:20:46.827Z,123.75
2022-10-13T07:21:46.824Z,123.75
2022-10-13T07:22:46.807Z,123.75
2022-10-13T07:23:47.337Z,123.75
2022-10-13T07:24:47.807Z,123.75
2022-10-13T07:25:46.766Z,123.75
2022-10-13T07:26:46.767Z,123.75
2022-10-13T07:27:46.754Z,123.75
2022-10-13T07:28:46.777Z,129.38
2022-10-13T07:29:46.727Z,129.38
2022-10-13T07:30:46.766Z,129.38
2022-10-13T07:31:46.707Z,135.00
2022-10-13T07:32:46.692Z,135.00
2022-10-13T07:33:46.698Z,140.62
2022-10-13T07:34:46.683Z,140.62
2022-10-13T07:35:46.664Z,146.25
2022-10-13T07:36:46.689Z,151.88
2022-10-13T07:37:46.639Z,151.88
2022-10-13T07:38:46.638Z,157.50
2022-10-13T07:39:46.620Z,157.50
2022-10-13T07:40:46.720Z,163.12
2022-10-13T07:41:50.881Z,163.12
2022-10-13T07:42:46.611Z,163.12
2022-10-13T07:43:46.608Z,168.75
2022-10-13T07:44:46.600Z,168.75
2022-10-13T07:45:46.573Z,174.38
2022-10-13T07:46:46.535Z,174.38
2022-10-13T07:47:46.554Z,180.00
2022-10-13T07:48:46.556Z,180.00
2022-10-13T07:49:46.504Z,185.62
2022-10-13T07:50:46.539Z,185.62
2022-10-13T07:51:46.570Z,185.62
2022-10-13T07:52:46.481Z,185.62
2022-10-13T07:53:46.777Z,185.62
2022-10-13T07:54:46.468Z,185.62
2022-10-13T07:55:46.461Z,185.62
2022-10-13T07:56:46.419Z,191.25
2022-10-13T07:57:46.443Z,191.25
2022-10-13T07:58:46.403Z,191.25
2022-10-13T07:59:46.413Z,191.25
2022-10-13T08:00:46.413Z,196.88
2022-10-13T08:01:46.432Z,196.88
2022-10-13T08:02:46.360Z,196.88
2022-10-13T08:03:49.881Z,196.88
2022-10-13T08:04:46.353Z,191.25
2022-10-13T08:05:46.354Z,191.25
2022-10-13T08:06:46.326Z,191.25
2022-10-13T08:07:46.364Z,185.62
2022-10-13T08:08:46.308Z,185.62
2022-10-13T08:09:46.290Z,185.62
2022-10-13T08:10:46.343Z,180.00
2022-10-13T08:11:46.299Z,180.00
2022-10-13T08:12:46.245Z,180.00
2022-10-13T08:13:46.546Z,180.00
2022-10-13T08:14:46.309Z,185.62
2022-10-13T08:15:46.287Z,185.62
2022-10-13T08:16:48.722Z,191.25
2022-10-13T08:17:47.304Z,191.25
2022-10-13T08:18:46.195Z,196.88
2022-10-13T08:19:46.160Z,202.50
2022-10-13T08:20:46.245Z,208.12
2022-10-13T08:21:58.270Z,213.75
2022-10-13T08:22:47.138Z,219.38
2022-10-13T08:23:46.135Z,219.38
2022-10-13T08:24:46.141Z,219.38
2022-10-13T08:25:46.118Z,219.38
2022-10-13T08:26:46.105Z,225.00
2022-10-13T08:27:51.671Z,225.00
2022-10-13T08:29:02.970Z,225.00
2022-10-13T08:29:47.076Z,230.62
2022-10-13T08:30:46.692Z,236.25
2022-10-13T08:31:46.249Z,241.88
2022-10-13T08:32:46.018Z,247.50
2022-10-13T08:33:46.027Z,253.12
2022-10-13T08:34:46.007Z,258.75
2022-10-13T08:35:45.997Z,264.38
2022-10-13T08:36:46.023Z,264.38
2022-10-13T08:37:45.956Z,270.00
2022-10-13T08:38:45.947Z,270.00
2022-10-13T08:39:45.944Z,270.00
2022-10-13T08:40:45.941Z,270.00
2022-10-13T08:41:45.923Z,270.00
2022-10-13T08:42:45.925Z,275.62
2022-10-13T08:44:24.684Z,275.62
2022-10-13T08:45:10.907Z,281.25
2022-10-13T08:45:46.980Z,281.25
2022-10-13T08:46:45.875Z,286.88
2022-10-13T08:47:45.858Z,286.88
2022-10-13T08:48:45.857Z,292.50
2022-10-13T08:49:46.657Z,298.12
2022-10-13T08:50:45.889Z,298.12
2022-10-13T08:51:45.815Z,298.12
2022-10-13T08:52:45.807Z,292.50
2022-10-13T08:53:46.419Z,292.50
2022-10-13T08:54:45.772Z,298.12
2022-10-13T08:55:45.773Z,303.75
2022-10-13T08:56:45.772Z,303.75
2022-10-13T08:57:45.734Z,309.38
2022-10-13T08:58:45.723Z,315.00
2022-10-13T08:59:45.732Z,315.00
2022-10-13T09:00:45.723Z,320.62
2022-10-13T09:01:45.785Z,326.25
2022-10-13T09:02:45.849Z,331.88
2022-10-13T09:03:45.665Z,331.88
2022-10-13T09:04:45.650Z,337.50
2022-10-13T09:05:45.676Z,343.12
2022-10-13T09:06:45.642Z,343.12
2022-10-13T09:07:45.637Z,343.12
2022-10-13T09:08:45.635Z,343.12
2022-10-13T09:09:45.602Z,348.75
2022-10-13T09:10:45.584Z,348.75
2022-10-13T09:11:45.954Z,348.75
2022-10-13T09:12:45.589Z,348.75
2022-10-13T09:13:45.562Z,354.38
2022-10-13T09:14:45.927Z,354.38
2022-10-13T09:15:45.569Z,354.38
2022-10-13T09:16:45.512Z,399.38
2022-10-13T09:17:45.515Z,360.00
2022-10-13T09:18:45.517Z,354.38
2022-10-13T09:19:45.496Z,343.12
2022-10-13T09:20:45.483Z,337.50
2022-10-13T09:21:45.514Z,331.88
2022-10-13T09:22:45.455Z,331.88
2022-10-13T09:23:45.432Z,326.25
2022-10-13T09:24:46.024Z,326.25
2022-10-13T09:25:45.779Z,326.25
2022-10-13T09:26:45.384Z,326.25
2022-10-13T09:27:45.535Z,326.25
2022-10-13T09:28:45.441Z,326.25
2022-10-13T09:29:45.365Z,331.88
2022-10-13T09:30:45.357Z,331.88
2022-10-13T09:31:45.359Z,331.88
2022-10-13T09:32:45.317Z,337.50
2022-10-13T09:33:45.324Z,337.50
2022-10-13T09:34:45.323Z,343.12
2022-10-13T09:35:46.308Z,343.12
2022-10-13T09:36:45.276Z,343.12
2022-10-13T09:37:45.279Z,343.12
2022-10-13T09:38:45.290Z,348.75
2022-10-13T09:39:45.241Z,348.75
2022-10-13T09:40:45.242Z,343.12
2022-10-13T09:41:45.523Z,348.75
2022-10-13T09:42:45.209Z,348.75
2022-10-13T09:43:45.217Z,348.75
2022-10-13T09:44:45.230Z,348.75
2022-10-13T09:45:46.397Z,354.38
2022-10-13T09:46:45.160Z,354.38
2022-10-13T09:47:45.170Z,360.00
2022-10-13T09:48:45.169Z,360.00
2022-10-13T09:49:45.124Z,360.00
2022-10-13T09:50:46.465Z,360.00
2022-10-13T09:51:45.103Z,365.62
2022-10-13T09:52:45.091Z,365.62
2022-10-13T09:53:45.080Z,365.62
2022-10-13T09:54:45.080Z,365.62
2022-10-13T09:55:45.083Z,365.62
2022-10-13T09:56:45.064Z,365.62
2022-10-13T09:57:45.156Z,365.62
2022-10-13T09:59:45.004Z,371.25
2022-10-13T10:00:45.022Z,371.25
2022-10-13T10:01:44.994Z,376.88
2022-10-13T10:02:44.973Z,371.25
2022-10-13T10:03:45.014Z,371.25
2022-10-13T10:04:44.952Z,371.25
2022-10-13T10:05:45.674Z,365.62
2022-10-13T10:06:44.958Z,365.62
2022-10-13T10:07:44.932Z,365.62
2022-10-13T10:09:02.258Z,360.00
2022-10-13T10:09:45.892Z,360.00
2022-10-13T10:10:44.922Z,365.62
2022-10-13T10:11:45.184Z,365.62
2022-10-13T10:12:44.879Z,371.25
2022-10-13T10:13:44.858Z,376.88
2022-10-13T10:14:44.872Z,376.88
2022-10-13T10:15:44.856Z,382.50
2022-10-13T10:16:44.813Z,382.50
2022-10-13T10:17:44.825Z,382.50
2022-10-13T10:18:44.795Z,382.50
2022-10-13T10:19:44.787Z,382.50
2022-10-13T10:20:44.817Z,382.50
2022-10-13T10:21:44.786Z,382.50
2022-10-13T10:22:45.068Z,393.75
2022-10-13T10:23:44.746Z,393.75
2022-10-13T10:24:45.727Z,399.38
2022-10-13T10:25:44.750Z,405.00
2022-10-13T10:26:44.710Z,405.00
2022-10-13T10:27:44.715Z,405.00
2022-10-13T10:28:44.769Z,405.00
2022-10-13T10:29:44.668Z,410.62
2022-10-13T10:30:44.692Z,416.25
2022-10-13T10:31:44.699Z,421.88
2022-10-13T10:32:44.666Z,421.88
2022-10-13T10:33:44.796Z,427.50
2022-10-13T10:34:44.787Z,427.50
2022-10-13T10:35:44.661Z,427.50
2022-10-13T10:36:44.721Z,427.50
2022-10-13T10:37:44.683Z,427.50
2022-10-13T10:38:44.609Z,427.50
2022-10-13T10:39:44.679Z,421.88
2022-10-13T10:40:44.610Z,421.88
2022-10-13T10:41:44.591Z,410.62
2022-10-13T10:42:48.421Z,405.00
2022-10-13T10:43:45.552Z,399.38
2022-10-13T10:44:44.595Z,399.38
2022-10-13T10:45:44.536Z,399.38
2022-10-13T10:46:44.968Z,399.38
2022-10-13T10:47:44.475Z,399.38
2022-10-13T10:48:44.553Z,405.00
2022-10-13T10:49:44.463Z,410.62
2022-10-13T10:50:44.482Z,410.62
2022-10-13T10:51:44.523Z,416.25
2022-10-13T10:52:44.724Z,416.25
2022-10-13T10:53:44.479Z,416.25
2022-10-13T10:54:49.065Z,416.25
2022-10-13T10:55:45.402Z,416.25
2022-10-13T10:56:44.751Z,416.25
2022-10-13T10:57:46.243Z,410.62
2022-10-13T10:58:44.452Z,410.62
2022-10-13T10:59:48.864Z,410.62
2022-10-13T11:00:44.345Z,405.00
2022-10-13T11:01:44.429Z,405.00
2022-10-13T11:02:45.010Z,405.00
2022-10-13T11:03:44.347Z,405.00
2022-10-13T11:04:44.525Z,399.38
2022-10-13T11:05:44.295Z,399.38
2022-10-13T11:06:45.291Z,399.38
2022-10-13T11:07:44.245Z,405.00
2022-10-13T11:08:44.256Z,410.62
2022-10-13T11:09:44.267Z,416.25
2022-10-13T11:10:44.234Z,421.88
2022-10-13T11:11:44.246Z,427.50
2022-10-13T11:12:44.275Z,421.88
2022-10-13T11:13:44.187Z,416.25
2022-10-13T11:14:44.197Z,416.25
2022-10-13T11:15:44.368Z,405.00
2022-10-13T11:16:45.087Z,393.75
2022-10-13T11:17:44.179Z,388.12
2022-10-13T11:18:44.161Z,376.88
2022-10-13T11:19:44.108Z,365.62
2022-10-13T11:20:44.112Z,360.00
2022-10-13T11:21:44.119Z,360.00
2022-10-13T11:22:44.100Z,354.38
2022-10-13T11:23:44.059Z,354.38
2022-10-13T11:24:44.109Z,354.38
2022-10-13T11:25:44.086Z,354.38
2022-10-13T11:26:44.019Z,354.38
2022-10-13T11:27:44.043Z,360.00
2022-10-13T11:28:44.043Z,365.62
2022-10-13T11:29:44.024Z,371.25
2022-10-13T11:30:44.365Z,371.25
2022-10-13T11:31:44.030Z,376.88
2022-10-13T11:32:43.971Z,382.50
2022-10-13T11:33:43.954Z,382.50
2022-10-13T11:34:44.232Z,393.75
2022-10-13T11:35:43.932Z,399.38
2022-10-13T11:36:43.910Z,405.00
2022-10-13T11:37:51.607Z,410.62
2022-10-13T11:38:44.892Z,410.62
2022-10-13T11:39:43.876Z,416.25
2022-10-13T11:40:43.880Z,427.50
2022-10-13T11:41:43.844Z,438.75
2022-10-13T11:42:43.835Z,450.00
2022-10-13T11:43:43.838Z,455.62
2022-10-13T11:44:43.803Z,466.88
2022-10-13T11:45:43.811Z,461.25
2022-10-13T11:46:44.554Z,472.50
2022-10-13T11:47:43.815Z,461.25
2022-10-13T11:48:43.774Z,450.00
2022-10-13T11:49:43.749Z,461.25
2022-10-13T11:50:44.026Z,472.50
2022-10-13T11:51:43.722Z,461.25
2022-10-13T11:52:43.776Z,466.88
2022-10-13T11:53:44.054Z,483.75
2022-10-13T11:54:43.703Z,500.62
2022-10-13T11:55:43.706Z,500.62
2022-10-13T11:56:47.476Z,495.00
2022-10-13T11:57:43.710Z,478.12
2022-10-13T11:58:43.646Z,466.88
2022-10-13T11:59:43.667Z,461.25
2022-10-13T12:00:43.861Z,466.88
2022-10-13T12:01:44.560Z,450.00
2022-10-13T12:02:43.681Z,427.50
2022-10-13T12:03:43.606Z,416.25
2022-10-13T12:04:46.701Z,405.00
2022-10-13T12:05:44.755Z,399.38
2022-10-13T12:06:43.587Z,399.38
2022-10-13T12:07:43.566Z,399.38
2022-10-13T12:08:43.519Z,410.62
2022-10-13T12:09:43.829Z,416.25
2022-10-13T12:10:43.521Z,421.88
2022-10-13T12:11:43.490Z,416.25
2022-10-13T12:12:43.500Z,410.62
2022-10-13T12:13:43.510Z,405.00
2022-10-13T12:14:43.460Z,399.38
2022-10-13T12:15:47.580Z,388.12
2022-10-13T12:16:44.212Z,376.88
2022-10-13T12:17:43.442Z,371.25
2022-10-13T12:18:43.431Z,371.25
2022-10-13T12:19:44.414Z,365.62
2022-10-13T12:20:44.031Z,348.75
2022-10-13T12:21:43.452Z,337.50
2022-10-13T12:22:43.388Z,326.25
2022-10-13T12:23:44.545Z,303.75
2022-10-13T12:24:43.374Z,281.25
2022-10-13T12:25:43.418Z,270.00
2022-10-13T12:26:43.318Z,264.38
2022-10-13T12:27:43.612Z,264.38
2022-10-13T12:28:43.328Z,270.00
2022-10-13T12:29:43.299Z,281.25
2022-10-13T12:30:43.291Z,286.88
2022-10-13T12:31:43.265Z,292.50
2022-10-13T12:32:43.236Z,303.75
2022-10-13T12:33:43.270Z,303.75
2022-10-13T12:34:43.511Z,309.38
2022-10-13T12:35:43.214Z,309.38
2022-10-13T12:36:43.356Z,303.75
2022-10-13T12:37:43.240Z,292.50
2022-10-13T12:38:43.175Z,281.25
2022-10-13T12:39:43.181Z,270.00
2022-10-13T12:40:43.253Z,270.00
2022-10-13T12:41:43.169Z,270.00
2022-10-13T12:42:43.118Z,275.62
2022-10-13T12:43:43.190Z,281.25
2022-10-13T12:44:43.090Z,286.88
2022-10-13T12:45:43.096Z,292.50
2022-10-13T12:46:43.098Z,298.12
2022-10-13T12:47:43.077Z,298.12
2022-10-13T12:48:43.058Z,298.12
2022-10-13T12:49:43.079Z,298.12
2022-10-13T12:50:43.042Z,292.50
2022-10-13T12:51:43.016Z,286.88
2022-10-13T12:52:43.021Z,286.88
2022-10-13T12:53:42.999Z,281.25